createdAt,value
2022-07-29T00:00:48.795Z,1.50
2022-07-29T00:03:15.914Z,1.43
2022-07-29T00:05:43.398Z,1.53
2022-07-29T00:08:12.484Z,1.67
2022-07-29T00:10:39.959Z,1.70
2022-07-29T00:13:06.747Z,1.83
2022-07-29T00:15:33.655Z,2.03
2022-07-29T00:18:00.401Z,1.50
2022-07-29T00:20:27.204Z,1.50
2022-07-29T00:22:54.257Z,1.90
2022-07-29T00:25:21.072Z,1.73
2022-07-29T00:27:47.882Z,1.60
2022-07-29T00:30:14.938Z,1.70
2022-07-29T00:32:41.838Z,1.70
2022-07-29T00:35:27.904Z,1.90
2022-07-29T00:37:54.829Z,1.93
2022-07-29T00:40:23.633Z,2.00
2022-07-29T00:42:52.172Z,1.97
2022-07-29T00:45:19.988Z,1.47
2022-07-29T00:47:47.854Z,2.10
2022-07-29T00:50:15.402Z,1.70
2022-07-29T00:52:43.511Z,1.57
2022-07-29T00:55:13.018Z,1.70
2022-07-29T00:57:41.047Z,1.70
2022-07-29T01:00:10.943Z,2.10
2022-07-29T01:02:38.131Z,1.70
2022-07-29T01:05:06.807Z,1.90
2022-07-29T01:07:35.953Z,1.70
2022-07-29T01:10:05.132Z,1.67
2022-07-29T01:12:34.382Z,1.93
2022-07-29T01:15:02.648Z,1.37
2022-07-29T01:17:53.334Z,1.67
2022-07-29T01:20:32.131Z,1.60
2022-07-29T01:23:07.633Z,1.80
2022-07-29T01:26:05.162Z,1.60
2022-07-29T01:28:56.861Z,1.80
2022-07-29T01:31:38.490Z,1.80
2022-07-29T01:34:23.304Z,1.90
2022-07-29T01:36:57.576Z,1.97
2022-07-29T01:39:33.468Z,1.83
2022-07-29T01:42:40.003Z,1.83
2022-07-29T01:45:38.164Z,1.97
2022-07-29T01:48:12.720Z,1.57
2022-07-29T01:50:52.755Z,2.10
2022-07-29T01:53:37.765Z,1.60
2022-07-29T01:56:08.106Z,2.07
2022-07-29T01:58:37.602Z,1.80
2022-07-29T02:01:05.973Z,1.90
2022-07-29T02:03:36.669Z,2.20
2022-07-29T02:06:05.289Z,1.60
2022-07-29T02:08:34.534Z,1.83
2022-07-29T02:11:03.698Z,1.90
2022-07-29T02:13:32.459Z,2.53
2022-07-29T02:16:00.545Z,1.97
2022-07-29T02:18:30.097Z,2.00
2022-07-29T02:20:59.573Z,2.27
2022-07-29T02:23:27.684Z,2.07
2022-07-29T02:25:57.222Z,2.00
2022-07-29T02:28:27.496Z,1.80
2022-07-29T02:31:00.669Z,2.07
2022-07-29T02:33:28.781Z,1.87
2022-07-29T02:35:57.065Z,2.03
2022-07-29T02:38:44.721Z,2.20
2022-07-29T02:41:27.114Z,2.33
2022-07-29T02:44:07.212Z,2.03
2022-07-29T02:46:36.950Z,2.30
2022-07-29T02:49:20.205Z,2.20
2022-07-29T02:51:52.380Z,2.20
2022-07-29T02:54:39.797Z,2.73
2022-07-29T02:57:15.447Z,2.10
2022-07-29T02:59:44.377Z,2.20
2022-07-29T03:02:12.601Z,2.30
2022-07-29T03:04:42.635Z,2.00
2022-07-29T03:07:11.496Z,2.10
2022-07-29T03:09:39.460Z,2.10
2022-07-29T03:12:07.022Z,2.13
2022-07-29T03:14:34.583Z,2.10
2022-07-29T03:17:01.763Z,2.30
2022-07-29T03:19:29.458Z,2.30
2022-07-29T03:21:59.845Z,2.20
2022-07-29T03:24:34.889Z,2.20
2022-07-29T03:27:02.483Z,2.30
2022-07-29T03:29:33.567Z,2.40
2022-07-29T03:32:04.275Z,2.27
2022-07-29T03:34:34.726Z,2.40
2022-07-29T03:37:01.462Z,2.30
2022-07-29T03:39:33.013Z,2.20
2022-07-29T03:42:01.785Z,2.10
2022-07-29T03:44:30.183Z,2.30
2022-07-29T03:47:01.163Z,2.40
2022-07-29T03:49:28.948Z,2.00
2022-07-29T03:51:55.958Z,2.47
2022-07-29T03:54:23.514Z,2.40
2022-07-29T03:56:54.156Z,2.10
2022-07-29T03:59:22.407Z,2.30
2022-07-29T04:01:53.916Z,2.80
2022-07-29T04:04:20.935Z,2.17
2022-07-29T04:06:48.549Z,2.37
2022-07-29T04:09:16.293Z,2.63
2022-07-29T04:12:01.857Z,2.10
2022-07-29T04:14:34.989Z,2.00
2022-07-29T04:17:03.648Z,2.37
2022-07-29T04:19:33.604Z,2.30
2022-07-29T04:22:03.734Z,2.30
2022-07-29T04:24:32.640Z,2.00
2022-07-29T04:26:59.428Z,2.43
2022-07-29T04:29:26.544Z,2.30
2022-07-29T04:31:56.008Z,2.30
2022-07-29T04:34:22.816Z,2.07
2022-07-29T04:36:55.149Z,2.03
2022-07-29T04:39:23.258Z,2.50
2022-07-29T04:41:52.516Z,1.90
2022-07-29T04:44:28.753Z,2.63
2022-07-29T04:47:02.061Z,2.40
2022-07-29T04:49:28.992Z,2.30
2022-07-29T04:52:07.920Z,2.33
2022-07-29T04:54:44.027Z,2.17
2022-07-29T04:57:10.865Z,2.20
2022-07-29T04:59:37.873Z,2.30
2022-07-29T05:02:04.872Z,2.40
2022-07-29T05:04:37.445Z,2.30
2022-07-29T05:07:07.213Z,2.30
2022-07-29T05:09:35.959Z,2.40
2022-07-29T05:12:06.053Z,2.10
2022-07-29T05:14:33.729Z,2.33
2022-07-29T05:17:00.712Z,2.30
2022-07-29T05:19:31.814Z,2.40
2022-07-29T05:21:58.748Z,2.97
2022-07-29T05:24:25.552Z,1.90
2022-07-29T05:26:52.818Z,2.33
2022-07-29T05:29:43.938Z,2.83
2022-07-29T05:32:12.626Z,2.60
2022-07-29T05:34:50.089Z,2.40
2022-07-29T05:37:20.868Z,2.50
2022-07-29T05:39:50.586Z,2.40
2022-07-29T05:42:23.498Z,2.27
2022-07-29T05:44:50.349Z,2.20
2022-07-29T05:47:17.328Z,3.00
2022-07-29T05:49:44.454Z,2.33
2022-07-29T05:52:11.392Z,2.40
2022-07-29T05:54:38.403Z,2.87
2022-07-29T05:57:06.302Z,1.93
2022-07-29T05:59:37.567Z,2.30
2022-07-29T06:02:06.094Z,2.30
2022-07-29T06:04:34.491Z,2.37
2022-07-29T06:07:02.597Z,2.63
2022-07-29T06:09:29.801Z,3.27
2022-07-29T06:11:56.938Z,2.40
2022-07-29T06:14:23.713Z,2.70
2022-07-29T06:16:50.690Z,2.60
2022-07-29T06:19:17.786Z,2.40
2022-07-29T06:21:45.330Z,2.50
2022-07-29T06:24:13.964Z,2.97
2022-07-29T06:26:41.691Z,2.70
2022-07-29T06:29:09.517Z,2.87
2022-07-29T06:31:36.285Z,2.80
2022-07-29T06:34:03.540Z,2.50
2022-07-29T06:36:30.681Z,2.77
2022-07-29T06:38:57.468Z,2.50
2022-07-29T06:41:24.875Z,3.07
2022-07-29T06:43:55.307Z,2.90
2022-07-29T06:46:24.030Z,3.07
2022-07-29T06:48:53.039Z,2.73
2022-07-29T06:51:21.806Z,3.30
2022-07-29T06:53:59.791Z,3.60
2022-07-29T06:56:39.177Z,3.13
2022-07-29T06:59:10.064Z,3.43
2022-07-29T07:01:38.559Z,2.87
2022-07-29T07:04:05.586Z,3.03
2022-07-29T07:06:32.412Z,3.23
2022-07-29T07:08:59.305Z,3.20
2022-07-29T07:11:26.140Z,2.93
2022-07-29T07:13:52.858Z,3.00
2022-07-29T07:16:19.715Z,2.90
2022-07-29T07:18:46.664Z,2.60
2022-07-29T07:21:19.096Z,3.10
2022-07-29T07:23:47.039Z,2.87
2022-07-29T07:26:13.903Z,2.87
2022-07-29T07:28:40.914Z,3.23
2022-07-29T07:31:07.972Z,3.00
2022-07-29T07:33:34.695Z,3.20
2022-07-29T07:36:01.629Z,3.30
2022-07-29T07:38:28.682Z,3.00
2022-07-29T07:40:55.639Z,2.77
2022-07-29T07:43:23.637Z,3.07
2022-07-29T07:45:50.561Z,3.40
2022-07-29T07:48:17.737Z,3.40
2022-07-29T07:50:44.842Z,3.60
2022-07-29T07:53:11.834Z,2.80
2022-07-29T07:58:30.504Z,2.87
2022-07-29T08:00:57.510Z,3.13
2022-07-29T08:03:24.534Z,3.13
2022-07-29T08:05:55.295Z,3.37
2022-07-29T08:08:22.104Z,3.53
2022-07-29T08:10:56.340Z,3.00
2022-07-29T08:13:28.141Z,3.13
2022-07-29T08:15:59.084Z,3.27
2022-07-29T08:18:30.537Z,3.40
2022-07-29T08:20:58.080Z,3.30
2022-07-29T08:23:25.423Z,2.87
2022-07-29T08:25:52.538Z,3.03
2022-07-29T08:28:25.662Z,3.00
2022-07-29T08:30:53.039Z,3.43
2022-07-29T08:33:19.847Z,2.60
2022-07-29T08:35:47.117Z,3.07
2022-07-29T08:38:13.987Z,3.10
2022-07-29T08:40:40.764Z,3.40
2022-07-29T08:43:09.000Z,2.97
2022-07-29T08:45:49.922Z,2.80
2022-07-29T08:48:23.317Z,3.10
2022-07-29T08:50:55.596Z,2.80
2022-07-29T08:53:22.874Z,2.57
2022-07-29T08:55:51.005Z,2.90
2022-07-29T08:58:22.877Z,2.97
2022-07-29T09:00:53.456Z,3.30
2022-07-29T09:03:25.051Z,3.10
2022-07-29T09:05:52.856Z,2.70
2022-07-29T09:08:20.964Z,3.27
2022-07-29T09:10:48.114Z,2.97
2022-07-29T09:13:15.114Z,2.60
2022-07-29T09:15:42.116Z,2.90
2022-07-29T09:18:26.115Z,2.70
2022-07-29T09:21:14.518Z,3.20
2022-07-29T09:23:42.691Z,3.50
2022-07-29T09:26:09.557Z,2.80
2022-07-29T09:28:42.921Z,3.00
2022-07-29T09:31:09.818Z,2.60
2022-07-29T09:33:37.414Z,2.50
2022-07-29T09:36:10.652Z,2.23
2022-07-29T09:38:38.470Z,2.70
2022-07-29T09:41:07.033Z,2.80
2022-07-29T09:43:34.566Z,2.63
2022-07-29T09:46:14.843Z,2.07
2022-07-29T09:48:41.759Z,2.37
2022-07-29T09:51:21.302Z,2.40
2022-07-29T09:53:51.349Z,2.20
2022-07-29T09:56:28.044Z,2.43
2022-07-29T09:59:07.629Z,2.20
2022-07-29T10:01:35.108Z,2.23
2022-07-29T10:04:01.999Z,2.33
2022-07-29T10:06:29.344Z,2.07
2022-07-29T10:08:56.188Z,1.93
2022-07-29T10:11:23.141Z,2.47
2022-07-29T10:13:49.946Z,2.50
2022-07-29T10:16:17.452Z,2.47
2022-07-29T10:18:45.209Z,2.03
2022-07-29T10:21:22.495Z,2.37
2022-07-29T10:24:01.271Z,1.93
2022-07-29T10:26:30.139Z,2.30
2022-07-29T10:28:57.117Z,2.20
2022-07-29T10:31:40.689Z,2.13
2022-07-29T10:34:35.411Z,1.77
2022-07-29T10:37:45.843Z,1.97
2022-07-29T10:41:03.256Z,2.10
2022-07-29T10:43:39.057Z,2.80
2022-07-29T10:46:10.836Z,2.20
2022-07-29T10:49:09.754Z,2.80
2022-07-29T10:54:52.335Z,2.40
2022-07-29T10:57:20.823Z,2.90
2022-07-29T11:00:09.674Z,2.77
2022-07-29T11:05:30.756Z,1.93
2022-07-29T11:08:20.489Z,2.90
2022-07-29T11:10:49.755Z,2.73
2022-07-29T11:13:44.722Z,2.60
2022-07-29T11:16:16.147Z,2.67
2022-07-29T11:19:14.471Z,2.47
2022-07-29T11:21:58.369Z,2.67
2022-07-29T11:24:35.482Z,2.53
2022-07-29T11:27:21.845Z,2.60
2022-07-29T11:29:56.025Z,2.80
2022-07-29T11:32:25.502Z,2.70
2022-07-29T11:35:19.396Z,3.47
2022-07-29T11:38:41.627Z,2.70
2022-07-29T11:41:25.906Z,2.33
2022-07-29T11:43:55.884Z,2.30
2022-07-29T11:46:49.767Z,2.57
2022-07-29T11:49:31.641Z,2.17
2022-07-29T11:52:02.324Z,2.70
2022-07-29T11:54:38.764Z,3.03
2022-07-29T11:57:22.873Z,2.70
2022-07-29T12:00:09.658Z,2.85
2022-07-29T12:02:43.044Z,2.42
2022-07-29T12:05:14.533Z,2.50
2022-07-29T12:07:45.404Z,2.30
2022-07-29T12:10:19.913Z,2.53
2022-07-29T12:12:56.555Z,2.53
2022-07-29T12:15:25.036Z,2.22
2022-07-29T12:18:24.251Z,2.10
2022-07-29T12:20:58.871Z,2.60
2022-07-29T12:23:34.632Z,2.33
2022-07-29T12:26:07.646Z,3.15
2022-07-29T12:28:39.737Z,2.60
2022-07-29T12:31:08.177Z,2.50
2022-07-29T12:33:36.066Z,1.90
2022-07-29T12:36:07.261Z,2.28
2022-07-29T12:38:36.878Z,2.28
2022-07-29T12:41:04.968Z,2.45
2022-07-29T12:43:32.155Z,2.53
2022-07-29T12:46:12.170Z,2.72
2022-07-29T12:48:44.770Z,2.53
2022-07-29T12:51:15.224Z,2.33
2022-07-29T12:53:42.429Z,2.05
2022-07-29T12:56:40.468Z,2.47
2022-07-29T12:59:14.467Z,2.60
2022-07-29T13:01:41.519Z,2.45
2022-07-29T13:04:08.397Z,2.95
2022-07-29T13:06:49.629Z,2.47
2022-07-29T13:09:20.256Z,3.00
2022-07-29T13:11:53.204Z,2.55
2022-07-29T13:14:40.854Z,2.22
2022-07-29T13:17:28.270Z,2.75
2022-07-29T13:20:09.741Z,2.47
2022-07-29T13:22:36.918Z,2.42
2022-07-29T13:25:03.890Z,2.65
2022-07-29T13:27:33.145Z,2.72
2022-07-29T13:30:01.724Z,2.17
2022-07-29T13:32:30.784Z,2.83
2022-07-29T13:34:58.819Z,2.30
2022-07-29T13:37:26.963Z,2.60
2022-07-29T13:39:55.011Z,2.40
2022-07-29T13:42:21.888Z,2.38
2022-07-29T13:44:51.751Z,2.83
2022-07-29T13:47:19.562Z,2.40
2022-07-29T13:49:46.476Z,2.20
2022-07-29T13:52:13.359Z,2.40
2022-07-29T13:54:42.409Z,2.47
2022-07-29T13:57:11.592Z,2.90
2022-07-29T13:59:40.144Z,2.53
2022-07-29T14:02:07.717Z,3.50
2022-07-29T14:04:34.857Z,3.42
2022-07-29T14:07:03.445Z,2.80
2022-07-29T14:09:41.457Z,2.88
2022-07-29T14:12:09.227Z,3.28
2022-07-29T14:14:37.356Z,3.20
2022-07-29T14:17:06.886Z,2.75
2022-07-29T14:19:36.461Z,3.03
2022-07-29T14:22:04.923Z,2.63
2022-07-29T14:24:32.331Z,3.10
2022-07-29T14:26:59.986Z,3.05
2022-07-29T14:29:37.016Z,2.80
2022-07-29T14:32:11.182Z,2.72
2022-07-29T14:34:38.813Z,2.95
2022-07-29T14:37:06.759Z,3.08
2022-07-29T14:39:38.167Z,2.97
2022-07-29T14:42:09.116Z,3.08
2022-07-29T14:44:36.075Z,2.80
2022-07-29T14:47:07.655Z,3.13
2022-07-29T14:49:34.953Z,3.60
2022-07-29T14:52:02.010Z,3.70
2022-07-29T14:54:28.889Z,2.83
2022-07-29T14:56:58.074Z,3.00
2022-07-29T14:59:25.450Z,2.63
2022-07-29T15:01:52.269Z,3.10
2022-07-29T15:04:19.077Z,2.87
2022-07-29T15:06:45.895Z,2.60
2022-07-29T15:09:12.852Z,3.20
2022-07-29T15:11:39.736Z,2.50
2022-07-29T15:14:07.185Z,2.70
2022-07-29T15:16:36.553Z,2.77
2022-07-29T15:19:04.182Z,2.70
2022-07-29T15:21:30.922Z,2.33
2022-07-29T15:23:57.732Z,2.33
2022-07-29T15:26:24.530Z,2.43
2022-07-29T15:28:51.360Z,2.13
2022-07-29T15:31:19.787Z,2.47
2022-07-29T15:33:46.638Z,2.30
2022-07-29T15:36:25.405Z,2.30
2022-07-29T15:39:00.351Z,2.53
2022-07-29T15:41:27.440Z,2.30
2022-07-29T15:43:54.238Z,2.20
2022-07-29T15:46:40.001Z,2.83
2022-07-29T15:49:07.964Z,2.20
2022-07-29T15:51:34.987Z,2.20
2022-07-29T15:54:03.596Z,1.90
2022-07-29T15:56:30.571Z,2.00
2022-07-29T15:58:57.888Z,2.00
2022-07-29T16:01:25.183Z,2.30
2022-07-29T16:03:52.067Z,2.07
2022-07-29T16:06:19.280Z,1.90
2022-07-29T16:08:46.309Z,2.07
2022-07-29T16:11:13.072Z,2.07
2022-07-29T16:13:39.824Z,2.23
2022-07-29T16:16:07.026Z,2.03
2022-07-29T16:18:34.683Z,2.07
2022-07-29T16:21:01.481Z,2.13
2022-07-29T16:23:28.219Z,1.70
2022-07-29T16:26:00.167Z,2.30
2022-07-29T16:28:28.748Z,1.90
2022-07-29T16:30:55.803Z,1.93
2022-07-29T16:33:23.533Z,2.00
2022-07-29T16:35:50.964Z,1.50
2022-07-29T16:38:18.034Z,1.80
2022-07-29T16:40:44.899Z,1.83
2022-07-29T16:43:11.682Z,2.90
2022-07-29T16:45:45.928Z,3.50
2022-07-29T16:48:18.823Z,2.60
2022-07-29T16:50:49.648Z,1.97
2022-07-29T16:53:16.789Z,2.10
2022-07-29T16:55:43.764Z,2.00
2022-07-29T16:58:11.349Z,2.27
2022-07-29T17:00:38.984Z,2.07
2022-07-29T17:03:05.874Z,2.10
2022-07-29T17:05:50.463Z,1.93
2022-07-29T17:08:20.111Z,1.97
2022-07-29T17:10:47.338Z,2.00
2022-07-29T17:13:14.509Z,2.00
2022-07-29T17:15:42.961Z,1.90
2022-07-29T17:18:12.433Z,1.70
2022-07-29T17:20:41.583Z,1.97
2022-07-29T17:23:08.502Z,1.97
2022-07-29T17:25:35.304Z,2.03
2022-07-29T17:28:02.175Z,1.90
2022-07-29T17:30:29.833Z,2.03
2022-07-29T17:32:56.652Z,2.13
2022-07-29T17:35:41.979Z,2.40
2022-07-29T17:38:08.776Z,2.03
2022-07-29T17:40:35.597Z,2.27
2022-07-29T17:43:02.428Z,2.07
2022-07-29T17:45:49.864Z,2.17
2022-07-29T17:48:16.218Z,2.10
2022-07-29T17:50:43.036Z,2.20
2022-07-29T17:53:15.703Z,2.20
2022-07-29T17:55:48.802Z,2.10
2022-07-29T17:58:16.101Z,2.10
2022-07-29T18:00:43.064Z,2.40
2022-07-29T18:03:10.272Z,2.60
2022-07-29T18:05:37.344Z,2.33
2022-07-29T18:08:04.426Z,2.00
2022-07-29T18:10:31.316Z,2.20
2022-07-29T18:12:58.285Z,2.73
2022-07-29T18:15:25.298Z,1.90
2022-07-29T18:17:57.167Z,2.03
2022-07-29T18:20:25.907Z,2.53
2022-07-29T18:22:53.220Z,2.20
2022-07-29T18:25:20.590Z,2.10
2022-07-29T18:27:47.548Z,2.27
2022-07-29T18:30:17.326Z,2.60
2022-07-29T18:32:59.261Z,3.00
2022-07-29T18:35:32.351Z,2.07
2022-07-29T18:38:00.782Z,2.20
2022-07-29T18:40:30.043Z,1.97
2022-07-29T18:42:56.907Z,2.40
2022-07-29T18:45:28.381Z,2.17
2022-07-29T18:47:56.501Z,2.07
2022-07-29T18:50:28.829Z,2.43
2022-07-29T18:52:58.460Z,2.47
2022-07-29T18:55:25.867Z,2.43
2022-07-29T18:57:56.382Z,1.90
2022-07-29T19:00:24.421Z,2.53
2022-07-29T19:02:52.472Z,2.47
2022-07-29T19:05:19.470Z,2.57
2022-07-29T19:07:46.475Z,3.43
2022-07-29T19:10:13.605Z,2.80
2022-07-29T19:12:40.675Z,2.53
2022-07-29T19:15:08.134Z,2.47
2022-07-29T19:17:34.931Z,2.30
2022-07-29T19:20:02.508Z,2.90
2022-07-29T19:22:29.616Z,3.37
2022-07-29T19:24:56.718Z,2.60
2022-07-29T19:27:24.466Z,2.80
2022-07-29T19:29:51.332Z,2.57
2022-07-29T19:32:25.066Z,2.33
2022-07-29T19:35:11.430Z,2.70
2022-07-29T19:37:38.559Z,2.63
2022-07-29T19:40:12.073Z,3.00
2022-07-29T19:42:39.279Z,2.93
2022-07-29T19:45:08.264Z,2.67
2022-07-29T19:47:35.676Z,2.50
2022-07-29T19:50:03.050Z,2.90
2022-07-29T19:52:29.897Z,2.70
2022-07-29T19:54:57.225Z,3.10
2022-07-29T19:57:24.364Z,3.07
2022-07-29T19:59:52.999Z,2.90
2022-07-29T20:02:20.066Z,2.83
2022-07-29T20:04:47.483Z,3.10
2022-07-29T20:07:14.550Z,3.13
2022-07-29T20:09:42.349Z,3.80
2022-07-29T20:12:09.993Z,2.90
2022-07-29T20:14:37.152Z,3.60
2022-07-29T20:17:04.905Z,3.20
2022-07-29T20:19:32.871Z,3.00
2022-07-29T20:21:59.710Z,3.03
2022-07-29T20:24:26.449Z,2.93
2022-07-29T20:26:53.371Z,2.70
2022-07-29T20:29:20.258Z,3.07
2022-07-29T20:31:52.226Z,3.50
2022-07-29T20:34:23.116Z,2.70
2022-07-29T20:36:49.914Z,3.30
2022-07-29T20:39:16.721Z,3.67
2022-07-29T20:41:46.035Z,3.00
2022-07-29T20:44:12.995Z,3.40
2022-07-29T20:46:39.848Z,2.87
2022-07-29T20:49:06.995Z,3.27
2022-07-29T20:51:43.702Z,3.03
2022-07-29T20:54:11.264Z,3.43
2022-07-29T20:56:38.629Z,3.67
2022-07-29T20:59:05.683Z,3.23
2022-07-29T21:01:32.767Z,3.60
2022-07-29T21:04:01.558Z,3.40
2022-07-29T21:06:28.857Z,3.47
2022-07-29T21:08:57.873Z,3.53
2022-07-29T21:11:44.443Z,3.53
2022-07-29T21:14:29.242Z,3.77
2022-07-29T21:16:56.790Z,3.77
2022-07-29T21:19:23.719Z,4.23
2022-07-29T21:21:51.029Z,3.87
2022-07-29T21:24:19.176Z,4.17
2022-07-29T21:26:50.749Z,4.03
2022-07-29T21:29:31.829Z,3.60
2022-07-29T21:31:58.780Z,4.23
2022-07-29T21:34:27.928Z,3.83
2022-07-29T21:36:54.680Z,3.80
2022-07-29T21:39:21.493Z,4.10
2022-07-29T21:41:48.654Z,3.90
2022-07-29T21:44:15.925Z,4.20
2022-07-29T21:46:42.734Z,3.90
2022-07-29T21:49:09.590Z,4.60
2022-07-29T21:51:36.527Z,4.30
2022-07-29T21:54:04.230Z,4.20
2022-07-29T21:56:31.499Z,4.20
2022-07-29T21:58:58.565Z,3.40
2022-07-29T22:01:25.586Z,4.00
2022-07-29T22:03:52.541Z,4.70
2022-07-29T22:06:19.711Z,4.47
2022-07-29T22:08:47.766Z,4.63
2022-07-29T22:11:14.689Z,4.30
2022-07-29T22:13:42.364Z,4.70
2022-07-29T22:16:10.226Z,3.93
2022-07-29T22:18:37.015Z,4.17
2022-07-29T22:21:03.996Z,3.90
2022-07-29T22:23:30.956Z,3.87
2022-07-29T22:26:00.693Z,3.80
2022-07-29T22:28:27.758Z,3.77
2022-07-29T22:30:54.726Z,4.07
2022-07-29T22:33:22.809Z,6.57
2022-07-29T22:35:49.880Z,6.20
2022-07-29T22:38:20.054Z,4.73
2022-07-29T22:40:48.700Z,4.80
2022-07-29T22:43:17.681Z,4.47
2022-07-29T22:45:44.646Z,4.13
2022-07-29T22:48:11.728Z,4.50
2022-07-29T22:50:39.101Z,3.73
2022-07-29T22:53:06.097Z,4.40
2022-07-29T22:55:33.014Z,4.37
2022-07-29T22:58:02.273Z,4.53
2022-07-29T23:00:31.799Z,4.87
2022-07-29T23:02:58.969Z,4.10
2022-07-29T23:05:26.156Z,4.57
2022-07-29T23:07:53.053Z,4.27
2022-07-29T23:10:20.572Z,4.07
2022-07-29T23:12:53.725Z,4.00
2022-07-29T23:15:20.923Z,4.30
2022-07-29T23:17:47.878Z,4.50
2022-07-29T23:20:15.937Z,4.10
2022-07-29T23:22:43.085Z,5.17
2022-07-29T23:25:12.737Z,4.27
2022-07-29T23:27:42.859Z,3.47
2022-07-29T23:30:13.083Z,4.10
2022-07-29T23:32:42.078Z,4.43
2022-07-29T23:35:12.711Z,6.67
2022-07-29T23:37:39.849Z,9.40
2022-07-29T23:40:12.167Z,6.73
2022-07-29T23:42:42.233Z,4.80
2022-07-29T23:45:18.763Z,4.27
2022-07-29T23:47:54.311Z,4.40
2022-07-29T23:50:24.263Z,3.90
2022-07-29T23:52:53.929Z,3.50
2022-07-29T23:55:36.372Z,4.10
2022-07-29T23:58:06.826Z,4.07
